sensor_id;sensor_type;location;lat;lon;timestamp;pressure;altitude;pressure_sealevel;temperature;humidity
78309;BME280;67566;42.022;21.356;2023-05-07T00:01:06;98755.53;;;13.15;63.68
78309;BME280;67566;42.022;21.356;2023-05-07T00:03:32;98748.47;;;13.02;63.78
78309;BME280;67566;42.022;21.356;2023-05-07T00:05:57;98757.72;;;12.96;63.80
78309;BME280;67566;42.022;21.356;2023-05-07T00:08:23;98754.72;;;12.80;64.17
78309;BME280;67566;42.022;21.356;2023-05-07T00:10:49;98757.06;;;12.73;64.42
78309;BME280;67566;42.022;21.356;2023-05-07T00:13:14;98753.41;;;12.60;64.47
78309;BME280;67566;42.022;21.356;2023-05-07T00:15:40;98749.91;;;12.51;64.88
78309;BME280;67566;42.022;21.356;2023-05-07T00:18:06;98753.00;;;12.44;64.70
78309;BME280;67566;42.022;21.356;2023-05-07T00:20:31;98753.81;;;12.44;64.83
78309;BME280;67566;42.022;21.356;2023-05-07T00:22:57;98756.03;;;12.42;64.85
78309;BME280;67566;42.022;21.356;2023-05-07T00:25:22;98750.47;;;12.39;64.83
78309;BME280;67566;42.022;21.356;2023-05-07T00:27:47;98755.22;;;12.42;64.57
78309;BME280;67566;42.022;21.356;2023-05-07T00:30:13;98758.06;;;12.45;64.50
78309;BME280;67566;42.022;21.356;2023-05-07T00:32:39;98759.13;;;12.36;65.20
78309;BME280;67566;42.022;21.356;2023-05-07T00:35:05;98755.78;;;12.30;65.31
78309;BME280;67566;42.022;21.356;2023-05-07T00:37:31;98765.22;;;12.27;65.20
78309;BME280;67566;42.022;21.356;2023-05-07T00:39:56;98761.88;;;12.22;64.99
78309;BME280;67566;42.022;21.356;2023-05-07T00:42:22;98756.50;;;12.13;65.35
78309;BME280;67566;42.022;21.356;2023-05-07T00:44:49;98756.03;;;12.11;65.39
78309;BME280;67566;42.022;21.356;2023-05-07T00:47:14;98765.28;;;12.14;65.34
78309;BME280;67566;42.022;21.356;2023-05-07T00:49:42;98760.56;;;12.11;64.99
78309;BME280;67566;42.022;21.356;2023-05-07T00:52:11;98764.47;;;12.04;65.68
78309;BME280;67566;42.022;21.356;2023-05-07T00:54:38;98769.16;;;11.99;65.99
78309;BME280;67566;42.022;21.356;2023-05-07T00:57:05;98769.28;;;11.94;65.96
78309;BME280;67566;42.022;21.356;2023-05-07T00:59:32;98772.13;;;11.97;66.75
78309;BME280;67566;42.022;21.356;2023-05-07T01:01:58;98768.03;;;12.00;65.92
78309;BME280;67566;42.022;21.356;2023-05-07T01:04:24;98767.13;;;12.04;65.82
78309;BME280;67566;42.022;21.356;2023-05-07T01:06:50;98767.31;;;12.08;65.81
78309;BME280;67566;42.022;21.356;2023-05-07T01:09:16;98771.53;;;12.09;65.92
78309;BME280;67566;42.022;21.356;2023-05-07T01:11:42;98774.53;;;12.07;66.13
78309;BME280;67566;42.022;21.356;2023-05-07T01:14:09;98772.34;;;12.09;65.67
78309;BME280;67566;42.022;21.356;2023-05-07T01:16:35;98774.03;;;12.05;65.79
78309;BME280;67566;42.022;21.356;2023-05-07T01:19:01;98772.44;;;11.96;65.91
78309;BME280;67566;42.022;21.356;2023-05-07T01:21:26;98770.56;;;11.82;66.43
78309;BME280;67566;42.022;21.356;2023-05-07T01:23:53;98771.28;;;11.74;66.36
78309;BME280;67566;42.022;21.356;2023-05-07T01:26:20;98772.22;;;11.69;66.66
78309;BME280;67566;42.022;21.356;2023-05-07T01:28:47;98773.78;;;11.70;66.17
78309;BME280;67566;42.022;21.356;2023-05-07T01:31:13;98781.72;;;11.62;66.47
78309;BME280;67566;42.022;21.356;2023-05-07T01:33:40;98774.47;;;11.53;66.72
78309;BME280;67566;42.022;21.356;2023-05-07T01:36:07;98778.69;;;11.55;66.92
78309;BME280;67566;42.022;21.356;2023-05-07T01:38:35;98771.78;;;11.53;66.78
78309;BME280;67566;42.022;21.356;2023-05-07T01:41:02;98771.31;;;11.51;66.68
78309;BME280;67566;42.022;21.356;2023-05-07T01:43:29;98770.50;;;11.51;67.19
78309;BME280;67566;42.022;21.356;2023-05-07T01:45:55;98774.88;;;11.47;66.86
78309;BME280;67566;42.022;21.356;2023-05-07T01:48:22;98775.19;;;11.45;67.14
78309;BME280;67566;42.022;21.356;2023-05-07T01:50:49;98776.25;;;11.44;67.05
78309;BME280;67566;42.022;21.356;2023-05-07T01:53:15;98774.63;;;11.34;67.47
78309;BME280;67566;42.022;21.356;2023-05-07T01:55:41;98772.78;;;11.21;67.98
78309;BME280;67566;42.022;21.356;2023-05-07T01:58:06;98769.91;;;11.18;67.68
78309;BME280;67566;42.022;21.356;2023-05-07T02:00:32;98770.81;;;11.13;67.64
78309;BME280;67566;42.022;21.356;2023-05-07T02:02:58;98773.47;;;11.13;67.68
78309;BME280;67566;42.022;21.356;2023-05-07T02:05:23;98765.59;;;11.08;67.95
78309;BME280;67566;42.022;21.356;2023-05-07T02:07:49;98762.34;;;10.97;68.08
78309;BME280;67566;42.022;21.356;2023-05-07T02:10:14;98764.22;;;10.96;67.66
78309;BME280;67566;42.022;21.356;2023-05-07T02:12:40;98769.16;;;11.03;67.81
78309;BME280;67566;42.022;21.356;2023-05-07T02:15:06;98772.41;;;11.00;68.00
78309;BME280;67566;42.022;21.356;2023-05-07T02:17:31;98770.44;;;10.92;68.34
78309;BME280;67566;42.022;21.356;2023-05-07T02:19:58;98759.31;;;10.90;67.88
78309;BME280;67566;42.022;21.356;2023-05-07T02:22:24;98761.56;;;10.96;68.07
78309;BME280;67566;42.022;21.356;2023-05-07T02:24:50;98766.59;;;10.98;67.77
78309;BME280;67566;42.022;21.356;2023-05-07T02:27:15;98760.78;;;10.96;67.93
78309;BME280;67566;42.022;21.356;2023-05-07T02:29:41;98761.78;;;10.86;67.56
78309;BME280;67566;42.022;21.356;2023-05-07T02:32:06;98772.25;;;10.83;68.58
78309;BME280;67566;42.022;21.356;2023-05-07T02:34:32;98776.00;;;10.82;68.31
78309;BME280;67566;42.022;21.356;2023-05-07T02:36:57;98770.16;;;10.80;69.16
78309;BME280;67566;42.022;21.356;2023-05-07T02:39:23;98778.56;;;10.73;68.64
78309;BME280;67566;42.022;21.356;2023-05-07T02:41:48;98783.91;;;10.73;68.99
78309;BME280;67566;42.022;21.356;2023-05-07T02:44:13;98780.03;;;10.65;69.90
78309;BME280;67566;42.022;21.356;2023-05-07T02:46:39;98774.03;;;10.60;69.33
78309;BME280;67566;42.022;21.356;2023-05-07T02:49:04;98778.47;;;10.50;69.42
78309;BME280;67566;42.022;21.356;2023-05-07T02:51:31;98776.59;;;10.51;69.53
78309;BME280;67566;42.022;21.356;2023-05-07T02:53:56;98788.22;;;10.55;69.52
78309;BME280;67566;42.022;21.356;2023-05-07T02:56:22;98790.88;;;10.55;69.23
78309;BME280;67566;42.022;21.356;2023-05-07T02:58:47;98787.44;;;10.54;69.21
78309;BME280;67566;42.022;21.356;2023-05-07T03:01:13;98788.31;;;10.50;69.57
78309;BME280;67566;42.022;21.356;2023-05-07T03:03:39;98792.38;;;10.47;69.66
78309;BME280;67566;42.022;21.356;2023-05-07T03:06:05;98788.91;;;10.47;69.56
78309;BME280;67566;42.022;21.356;2023-05-07T03:08:32;98803.09;;;10.42;69.28
78309;BME280;67566;42.022;21.356;2023-05-07T03:10:57;98797.50;;;10.44;69.42
78309;BME280;67566;42.022;21.356;2023-05-07T03:13:23;98794.34;;;10.42;69.58
78309;BME280;67566;42.022;21.356;2023-05-07T03:15:48;98800.81;;;10.35;69.76
78309;BME280;67566;42.022;21.356;2023-05-07T03:18:14;98805.16;;;10.31;70.08
78309;BME280;67566;42.022;21.356;2023-05-07T03:20:40;98800.88;;;10.30;69.56
78309;BME280;67566;42.022;21.356;2023-05-07T03:23:05;98804.72;;;10.24;69.23
78309;BME280;67566;42.022;21.356;2023-05-07T03:25:31;98809.84;;;10.20;69.26
78309;BME280;67566;42.022;21.356;2023-05-07T03:27:57;98805.09;;;10.17;69.05
78309;BME280;67566;42.022;21.356;2023-05-07T03:30:23;98808.34;;;10.14;69.38
78309;BME280;67566;42.022;21.356;2023-05-07T03:32:48;98808.91;;;10.11;70.03
78309;BME280;67566;42.022;21.356;2023-05-07T03:35:14;98809.19;;;10.10;70.33
78309;BME280;67566;42.022;21.356;2023-05-07T03:37:40;98814.16;;;10.16;70.13
78309;BME280;67566;42.022;21.356;2023-05-07T03:40:06;98819.00;;;10.28;69.63
78309;BME280;67566;42.022;21.356;2023-05-07T03:42:32;98820.84;;;10.33;69.59
78309;BME280;67566;42.022;21.356;2023-05-07T03:44:58;98825.06;;;10.34;69.59
78309;BME280;67566;42.022;21.356;2023-05-07T03:47:23;98829.88;;;10.32;69.48
78309;BME280;67566;42.022;21.356;2023-05-07T03:49:49;98826.88;;;10.19;68.99
78309;BME280;67566;42.022;21.356;2023-05-07T03:52:15;98820.38;;;10.12;69.52
78309;BME280;67566;42.022;21.356;2023-05-07T03:54:41;98827.25;;;10.13;69.88
78309;BME280;67566;42.022;21.356;2023-05-07T03:57:06;98827.25;;;10.13;70.01
78309;BME280;67566;42.022;21.356;2023-05-07T03:59:32;98832.28;;;10.14;69.81
78309;BME280;67566;42.022;21.356;2023-05-07T04:01:58;98832.78;;;10.16;70.01
78309;BME280;67566;42.022;21.356;2023-05-07T04:04:23;98836.91;;;10.09;69.84
78309;BME280;67566;42.022;21.356;2023-05-07T04:06:49;98844.88;;;10.09;70.31
78309;BME280;67566;42.022;21.356;2023-05-07T04:09:14;98840.56;;;10.13;70.15
78309;BME280;67566;42.022;21.356;2023-05-07T04:11:40;98847.19;;;10.15;70.31
78309;BME280;67566;42.022;21.356;2023-05-07T04:14:06;98845.22;;;10.21;70.62
78309;BME280;67566;42.022;21.356;2023-05-07T04:16:31;98850.13;;;10.33;70.44
78309;BME280;67566;42.022;21.356;2023-05-07T04:18:57;98858.13;;;10.47;70.34
78309;BME280;67566;42.022;21.356;2023-05-07T04:21:22;98854.41;;;10.62;70.23
78309;BME280;67566;42.022;21.356;2023-05-07T04:23:48;98864.16;;;10.66;70.41
78309;BME280;67566;42.022;21.356;2023-05-07T04:26:14;98867.81;;;10.70;70.58
78309;BME280;67566;42.022;21.356;2023-05-07T04:28:41;98871.66;;;10.78;70.05
78309;BME280;67566;42.022;21.356;2023-05-07T04:31:07;98872.38;;;10.84;70.17
78309;BME280;67566;42.022;21.356;2023-05-07T04:33:33;98874.94;;;10.89;70.37
78309;BME280;67566;42.022;21.356;2023-05-07T04:36:01;98870.91;;;10.91;70.29
78309;BME280;67566;42.022;21.356;2023-05-07T04:38:31;98878.59;;;10.93;70.31
78309;BME280;67566;42.022;21.356;2023-05-07T04:40:57;98877.19;;;10.95;70.28
78309;BME280;67566;42.022;21.356;2023-05-07T04:43:23;98882.34;;;11.06;70.58
78309;BME280;67566;42.022;21.356;2023-05-07T04:45:53;98882.34;;;11.20;70.21
78309;BME280;67566;42.022;21.356;2023-05-07T04:48:18;98884.31;;;11.28;69.83
78309;BME280;67566;42.022;21.356;2023-05-07T04:50:49;98889.53;;;11.33;69.32
78309;BME280;67566;42.022;21.356;2023-05-07T04:53:15;98889.16;;;11.40;69.29
78309;BME280;67566;42.022;21.356;2023-05-07T04:55:40;98886.47;;;11.53;69.29
78309;BME280;67566;42.022;21.356;2023-05-07T04:58:06;98884.53;;;11.68;68.62
78309;BME280;67566;42.022;21.356;2023-05-07T05:00:31;98885.09;;;11.79;68.74
78309;BME280;67566;42.022;21.356;2023-05-07T05:02:56;98887.75;;;11.93;68.54
78309;BME280;67566;42.022;21.356;2023-05-07T05:05:22;98886.94;;;12.06;68.62
78309;BME280;67566;42.022;21.356;2023-05-07T05:07:47;98885.28;;;12.19;68.01
78309;BME280;67566;42.022;21.356;2023-05-07T05:10:13;98888.19;;;12.31;68.01
78309;BME280;67566;42.022;21.356;2023-05-07T05:12:39;98880.53;;;12.38;68.06
78309;BME280;67566;42.022;21.356;2023-05-07T05:15:05;98878.56;;;12.53;67.26
78309;BME280;67566;42.022;21.356;2023-05-07T05:17:31;98881.16;;;12.66;66.93
78309;BME280;67566;42.022;21.356;2023-05-07T05:19:56;98881.88;;;12.81;66.86
78309;BME280;67566;42.022;21.356;2023-05-07T05:22:22;98884.75;;;12.93;66.15
78309;BME280;67566;42.022;21.356;2023-05-07T05:24:47;98875.53;;;13.08;65.87
78309;BME280;67566;42.022;21.356;2023-05-07T05:27:12;98882.78;;;13.16;65.68
78309;BME280;67566;42.022;21.356;2023-05-07T05:29:38;98888.63;;;13.27;65.23
78309;BME280;67566;42.022;21.356;2023-05-07T05:32:03;98889.78;;;13.44;65.08
78309;BME280;67566;42.022;21.356;2023-05-07T05:34:29;98884.66;;;13.56;64.48
78309;BME280;67566;42.022;21.356;2023-05-07T05:36:55;98882.44;;;13.58;65.08
78309;BME280;67566;42.022;21.356;2023-05-07T05:39:20;98884.66;;;13.73;65.10
78309;BME280;67566;42.022;21.356;2023-05-07T05:41:48;98886.22;;;13.92;63.89
78309;BME280;67566;42.022;21.356;2023-05-07T05:44:13;98881.50;;;14.06;63.50
78309;BME280;67566;42.022;21.356;2023-05-07T05:46:39;98883.53;;;14.18;63.15
78309;BME280;67566;42.022;21.356;2023-05-07T05:49:05;98884.13;;;14.32;62.86
78309;BME280;67566;42.022;21.356;2023-05-07T05:51:30;98896.88;;;14.44;62.09
78309;BME280;67566;42.022;21.356;2023-05-07T05:53:56;98884.59;;;14.43;62.34
78309;BME280;67566;42.022;21.356;2023-05-07T05:56:21;98890.28;;;14.42;61.78
78309;BME280;67566;42.022;21.356;2023-05-07T05:58:47;98891.38;;;14.41;61.28
78309;BME280;67566;42.022;21.356;2023-05-07T06:01:12;98891.69;;;14.48;61.46
78309;BME280;67566;42.022;21.356;2023-05-07T06:03:38;98894.16;;;14.70;61.84
78309;BME280;67566;42.022;21.356;2023-05-07T06:06:03;98898.06;;;14.90;61.44
78309;BME280;67566;42.022;21.356;2023-05-07T06:08:29;98895.13;;;15.04;61.15
78309;BME280;67566;42.022;21.356;2023-05-07T06:10:55;98896.09;;;15.08;61.13
78309;BME280;67566;42.022;21.356;2023-05-07T06:13:22;98891.31;;;15.14;61.04
78309;BME280;67566;42.022;21.356;2023-05-07T06:15:48;98895.69;;;15.27;60.73
78309;BME280;67566;42.022;21.356;2023-05-07T06:18:14;98886.06;;;15.47;60.69
78309;BME280;67566;42.022;21.356;2023-05-07T06:20:39;98891.25;;;15.53;60.70
78309;BME280;67566;42.022;21.356;2023-05-07T06:23:05;98890.56;;;15.64;59.84
78309;BME280;67566;42.022;21.356;2023-05-07T06:25:30;98890.97;;;15.75;59.78
78309;BME280;67566;42.022;21.356;2023-05-07T06:27:56;98887.00;;;15.81;59.83
78309;BME280;67566;42.022;21.356;2023-05-07T06:30:21;98882.91;;;15.96;59.44
78309;BME280;67566;42.022;21.356;2023-05-07T06:32:47;98880.94;;;16.05;58.73
78309;BME280;67566;42.022;21.356;2023-05-07T06:35:12;98883.88;;;16.13;57.78
78309;BME280;67566;42.022;21.356;2023-05-07T06:37:38;98885.69;;;16.21;57.65
78309;BME280;67566;42.022;21.356;2023-05-07T06:40:05;98880.59;;;16.40;57.69
78309;BME280;67566;42.022;21.356;2023-05-07T06:42:32;98874.81;;;16.51;56.77
78309;BME280;67566;42.022;21.356;2023-05-07T06:44:57;98873.84;;;16.68;57.16
78309;BME280;67566;42.022;21.356;2023-05-07T06:47:23;98871.03;;;16.76;57.73
78309;BME280;67566;42.022;21.356;2023-05-07T06:49:48;98859.63;;;16.79;56.48
78309;BME280;67566;42.022;21.356;2023-05-07T06:52:14;98858.84;;;16.91;56.45
78309;BME280;67566;42.022;21.356;2023-05-07T06:54:39;98857.84;;;16.96;56.32
78309;BME280;67566;42.022;21.356;2023-05-07T06:57:05;98858.06;;;17.03;56.10
78309;BME280;67566;42.022;21.356;2023-05-07T06:59:30;98864.00;;;17.09;55.17
78309;BME280;67566;42.022;21.356;2023-05-07T07:01:56;98869.28;;;17.30;55.30
78309;BME280;67566;42.022;21.356;2023-05-07T07:04:21;98860.72;;;17.40;54.65
78309;BME280;67566;42.022;21.356;2023-05-07T07:06:49;98864.06;;;17.62;54.74
78309;BME280;67566;42.022;21.356;2023-05-07T07:09:14;98857.06;;;17.73;53.93
78309;BME280;67566;42.022;21.356;2023-05-07T07:11:40;98856.25;;;17.85;52.95
78309;BME280;67566;42.022;21.356;2023-05-07T07:14:05;98853.19;;;17.99;52.02
78309;BME280;67566;42.022;21.356;2023-05-07T07:16:31;98850.44;;;18.11;52.77
78309;BME280;67566;42.022;21.356;2023-05-07T07:18:56;98851.31;;;18.15;52.46
78309;BME280;67566;42.022;21.356;2023-05-07T07:21:22;98853.94;;;18.27;52.74
78309;BME280;67566;42.022;21.356;2023-05-07T07:23:47;98854.13;;;18.35;51.09
78309;BME280;67566;42.022;21.356;2023-05-07T07:26:13;98854.09;;;18.47;49.99
78309;BME280;67566;42.022;21.356;2023-05-07T07:28:45;98853.63;;;18.61;50.69
78309;BME280;67566;42.022;21.356;2023-05-07T07:31:11;98853.47;;;18.69;49.63
78309;BME280;67566;42.022;21.356;2023-05-07T07:33:37;98855.63;;;18.80;49.76
78309;BME280;67566;42.022;21.356;2023-05-07T07:36:03;98858.53;;;18.87;49.99
78309;BME280;67566;42.022;21.356;2023-05-07T07:38:28;98853.75;;;18.96;49.48
78309;BME280;67566;42.022;21.356;2023-05-07T07:40:54;98857.22;;;19.13;49.09
78309;BME280;67566;42.022;21.356;2023-05-07T07:43:20;98854.31;;;19.21;49.31
78309;BME280;67566;42.022;21.356;2023-05-07T07:45:48;98856.47;;;19.32;49.32
78309;BME280;67566;42.022;21.356;2023-05-07T07:48:14;98848.81;;;19.53;48.96
78309;BME280;67566;42.022;21.356;2023-05-07T07:50:39;98852.97;;;19.67;48.14
78309;BME280;67566;42.022;21.356;2023-05-07T07:53:05;98846.94;;;19.73;49.06
78309;BME280;67566;42.022;21.356;2023-05-07T07:55:30;98842.25;;;19.70;48.52
78309;BME280;67566;42.022;21.356;2023-05-07T07:57:57;98845.09;;;19.77;49.20
78309;BME280;67566;42.022;21.356;2023-05-07T08:00:22;98846.03;;;19.85;48.76
78309;BME280;67566;42.022;21.356;2023-05-07T08:02:48;98843.56;;;19.76;49.29
78309;BME280;67566;42.022;21.356;2023-05-07T08:05:14;98840.13;;;19.79;47.84
78309;BME280;67566;42.022;21.356;2023-05-07T08:07:40;98843.84;;;19.91;47.63
78309;BME280;67566;42.022;21.356;2023-05-07T08:10:06;98841.41;;;20.05;47.73
78309;BME280;67566;42.022;21.356;2023-05-07T08:12:32;98825.00;;;20.17;47.24
78309;BME280;67566;42.022;21.356;2023-05-07T08:14:58;98831.47;;;20.13;46.72
78309;BME280;67566;42.022;21.356;2023-05-07T08:17:23;98822.78;;;20.23;45.68
78309;BME280;67566;42.022;21.356;2023-05-07T08:19:49;98829.06;;;20.27;46.22
78309;BME280;67566;42.022;21.356;2023-05-07T08:22:14;98829.53;;;20.33;46.71
78309;BME280;67566;42.022;21.356;2023-05-07T08:24:40;98824.97;;;20.37;46.62
78309;BME280;67566;42.022;21.356;2023-05-07T08:27:06;98835.97;;;20.48;46.59
78309;BME280;67566;42.022;21.356;2023-05-07T08:29:31;98822.38;;;20.64;46.14
78309;BME280;67566;42.022;21.356;2023-05-07T08:31:58;98824.31;;;20.67;46.10
78309;BME280;67566;42.022;21.356;2023-05-07T08:34:24;98818.66;;;20.75;45.17
78309;BME280;67566;42.022;21.356;2023-05-07T08:36:49;98818.41;;;20.84;45.34
78309;BME280;67566;42.022;21.356;2023-05-07T08:39:15;98811.56;;;20.90;45.05
78309;BME280;67566;42.022;21.356;2023-05-07T08:41:44;98811.66;;;20.98;44.25
78309;BME280;67566;42.022;21.356;2023-05-07T08:44:12;98814.47;;;21.05;45.24
78309;BME280;67566;42.022;21.356;2023-05-07T08:46:39;98812.34;;;21.21;44.99
78309;BME280;67566;42.022;21.356;2023-05-07T08:49:05;98804.72;;;21.27;44.42
78309;BME280;67566;42.022;21.356;2023-05-07T08:51:31;98806.94;;;21.48;44.95
78309;BME280;67566;42.022;21.356;2023-05-07T08:53:56;98810.16;;;21.57;45.50
78309;BME280;67566;42.022;21.356;2023-05-07T08:56:22;98807.56;;;21.68;45.17
78309;BME280;67566;42.022;21.356;2023-05-07T08:58:48;98800.81;;;21.88;43.89
78309;BME280;67566;42.022;21.356;2023-05-07T09:01:15;98806.47;;;22.10;43.89
78309;BME280;67566;42.022;21.356;2023-05-07T09:03:42;98802.19;;;22.09;42.59
78309;BME280;67566;42.022;21.356;2023-05-07T09:06:09;98801.34;;;22.01;42.78
78309;BME280;67566;42.022;21.356;2023-05-07T09:08:35;98798.25;;;22.03;44.00
78309;BME280;67566;42.022;21.356;2023-05-07T09:11:01;98793.31;;;22.12;42.28
78309;BME280;67566;42.022;21.356;2023-05-07T09:13:27;98799.56;;;22.16;42.69
78309;BME280;67566;42.022;21.356;2023-05-07T09:15:53;98790.16;;;22.06;43.00
78309;BME280;67566;42.022;21.356;2023-05-07T09:18:19;98789.91;;;22.22;43.51
78309;BME280;67566;42.022;21.356;2023-05-07T09:20:44;98781.69;;;22.53;42.40
78309;BME280;67566;42.022;21.356;2023-05-07T09:23:10;98779.50;;;22.73;42.80
78309;BME280;67566;42.022;21.356;2023-05-07T09:25:36;98779.56;;;22.87;42.61
78309;BME280;67566;42.022;21.356;2023-05-07T09:28:03;98774.25;;;22.98;42.60
78309;BME280;67566;42.022;21.356;2023-05-07T09:30:29;98777.81;;;23.13;41.42
78309;BME280;67566;42.022;21.356;2023-05-07T09:32:56;98774.25;;;22.98;40.65
78309;BME280;67566;42.022;21.356;2023-05-07T09:35:22;98769.31;;;23.18;40.62
78309;BME280;67566;42.022;21.356;2023-05-07T09:37:50;98771.72;;;23.34;39.40
78309;BME280;67566;42.022;21.356;2023-05-07T09:40:28;98764.78;;;23.47;39.18
78309;BME280;67566;42.022;21.356;2023-05-07T09:42:54;98764.78;;;23.44;40.34
78309;BME280;67566;42.022;21.356;2023-05-07T09:45:25;98768.25;;;23.44;39.85
78309;BME280;67566;42.022;21.356;2023-05-07T09:47:55;98752.78;;;23.55;40.54
78309;BME280;67566;42.022;21.356;2023-05-07T09:50:29;98750.03;;;23.52;39.44
78309;BME280;67566;42.022;21.356;2023-05-07T09:52:57;98752.00;;;23.55;39.78
78309;BME280;67566;42.022;21.356;2023-05-07T09:55:23;98741.91;;;23.55;39.78
78309;BME280;67566;42.022;21.356;2023-05-07T09:57:52;98733.34;;;23.57;38.81
78309;BME280;67566;42.022;21.356;2023-05-07T10:00:21;98740.75;;;23.64;40.11
78309;BME280;67566;42.022;21.356;2023-05-07T10:02:51;98740.44;;;23.83;39.45
78309;BME280;67566;42.022;21.356;2023-05-07T10:05:21;98738.13;;;23.85;38.32
78309;BME280;67566;42.022;21.356;2023-05-07T10:07:48;98727.25;;;23.89;38.27
78309;BME280;67566;42.022;21.356;2023-05-07T10:10:14;98736.94;;;23.86;38.04
78309;BME280;67566;42.022;21.356;2023-05-07T10:12:40;98725.69;;;24.06;38.72
78309;BME280;67566;42.022;21.356;2023-05-07T10:15:10;98728.81;;;24.15;37.76
78309;BME280;67566;42.022;21.356;2023-05-07T10:17:36;98729.97;;;24.25;37.46
78309;BME280;67566;42.022;21.356;2023-05-07T10:20:03;98723.38;;;24.29;38.07
78309;BME280;67566;42.022;21.356;2023-05-07T10:22:37;98719.09;;;24.28;37.93
78309;BME280;67566;42.022;21.356;2023-05-07T10:25:13;98718.31;;;24.35;37.96
78309;BME280;67566;42.022;21.356;2023-05-07T10:27:40;98717.94;;;24.33;38.32
78309;BME280;67566;42.022;21.356;2023-05-07T10:30:29;98711.69;;;24.50;37.54
78309;BME280;67566;42.022;21.356;2023-05-07T10:33:01;98707.44;;;24.64;36.40
78309;BME280;67566;42.022;21.356;2023-05-07T10:35:36;98704.25;;;24.87;37.53
78309;BME280;67566;42.022;21.356;2023-05-07T10:38:03;98696.00;;;25.05;36.98
78309;BME280;67566;42.022;21.356;2023-05-07T10:40:30;98704.09;;;25.30;36.89
78309;BME280;67566;42.022;21.356;2023-05-07T10:42:57;98696.28;;;25.39;35.44
78309;BME280;67566;42.022;21.356;2023-05-07T10:45:25;98691.53;;;25.51;35.77
78309;BME280;67566;42.022;21.356;2023-05-07T10:50:42;98682.50;;;25.61;34.41
78309;BME280;67566;42.022;21.356;2023-05-07T10:55:50;98680.38;;;25.87;34.68
78309;BME280;67566;42.022;21.356;2023-05-07T11:00:50;98677.94;;;26.03;33.97
78309;BME280;67566;42.022;21.356;2023-05-07T11:03:16;98675.53;;;26.09;33.67
78309;BME280;67566;42.022;21.356;2023-05-07T11:05:42;98669.63;;;26.17;34.01
78309;BME280;67566;42.022;21.356;2023-05-07T11:08:09;98672.31;;;26.25;32.70
78309;BME280;67566;42.022;21.356;2023-05-07T11:10:57;98670.09;;;26.12;31.72
78309;BME280;67566;42.022;21.356;2023-05-07T11:16:20;98663.69;;;26.26;31.82
78309;BME280;67566;42.022;21.356;2023-05-07T11:18:53;98659.75;;;26.31;31.67
78309;BME280;67566;42.022;21.356;2023-05-07T11:21:39;98662.78;;;26.40;30.81
78309;BME280;67566;42.022;21.356;2023-05-07T11:24:06;98660.06;;;26.40;29.64
78309;BME280;67566;42.022;21.356;2023-05-07T11:26:46;98660.00;;;26.44;30.83
78309;BME280;67566;42.022;21.356;2023-05-07T11:29:22;98644.88;;;26.39;31.33
78309;BME280;67566;42.022;21.356;2023-05-07T11:31:52;98656.75;;;26.56;30.58
78309;BME280;67566;42.022;21.356;2023-05-07T11:34:26;98659.84;;;26.65;30.63
78309;BME280;67566;42.022;21.356;2023-05-07T11:36:55;98659.34;;;26.74;30.42
78309;BME280;67566;42.022;21.356;2023-05-07T11:39:30;98656.88;;;26.83;30.68
78309;BME280;67566;42.022;21.356;2023-05-07T11:41:56;98650.13;;;26.95;30.40
78309;BME280;67566;42.022;21.356;2023-05-07T11:44:22;98650.84;;;26.99;30.49
78309;BME280;67566;42.022;21.356;2023-05-07T11:46:48;98650.16;;;26.91;28.89
78309;BME280;67566;42.022;21.356;2023-05-07T11:49:14;98654.56;;;26.82;29.99
78309;BME280;67566;42.022;21.356;2023-05-07T11:51:40;98648.50;;;26.98;30.31
78309;BME280;67566;42.022;21.356;2023-05-07T11:54:09;98649.19;;;27.05;30.56
78309;BME280;67566;42.022;21.356;2023-05-07T11:56:37;98640.41;;;27.21;29.32
78309;BME280;67566;42.022;21.356;2023-05-07T11:59:02;98637.81;;;27.10;28.96
78309;BME280;67566;42.022;21.356;2023-05-07T12:01:28;98633.31;;;27.27;29.07
78309;BME280;67566;42.022;21.356;2023-05-07T12:03:56;98633.25;;;27.31;28.69
78309;BME280;67566;42.022;21.356;2023-05-07T12:06:22;98639.75;;;27.41;28.83
78309;BME280;67566;42.022;21.356;2023-05-07T12:08:47;98619.78;;;27.44;28.34
78309;BME280;67566;42.022;21.356;2023-05-07T12:11:22;98625.44;;;27.57;28.06
78309;BME280;67566;42.022;21.356;2023-05-07T12:13:48;98627.88;;;27.51;28.21
78309;BME280;67566;42.022;21.356;2023-05-07T12:16:13;98623.47;;;27.57;28.29
78309;BME280;67566;42.022;21.356;2023-05-07T12:18:39;98628.00;;;27.67;28.63
78309;BME280;67566;42.022;21.356;2023-05-07T12:21:05;98628.81;;;27.41;28.13
78309;BME280;67566;42.022;21.356;2023-05-07T12:23:32;98616.84;;;27.31;28.52
78309;BME280;67566;42.022;21.356;2023-05-07T12:25:59;98615.91;;;27.41;28.17
78309;BME280;67566;42.022;21.356;2023-05-07T12:28:24;98603.81;;;27.42;27.30
78309;BME280;67566;42.022;21.356;2023-05-07T12:30:51;98605.16;;;27.30;28.63
78309;BME280;67566;42.022;21.356;2023-05-07T12:33:18;98596.47;;;27.36;28.37
78309;BME280;67566;42.022;21.356;2023-05-07T12:35:47;98603.94;;;27.59;28.33
78309;BME280;67566;42.022;21.356;2023-05-07T12:38:17;98602.91;;;27.73;27.75
78309;BME280;67566;42.022;21.356;2023-05-07T12:40:53;98595.31;;;27.84;28.56
78309;BME280;67566;42.022;21.356;2023-05-07T12:43:24;98581.81;;;27.97;28.27
78309;BME280;67566;42.022;21.356;2023-05-07T12:45:50;98581.91;;;27.93;28.49
78309;BME280;67566;42.022;21.356;2023-05-07T12:48:17;98571.56;;;28.01;27.99
78309;BME280;67566;42.022;21.356;2023-05-07T12:50:42;98571.09;;;28.06;27.46
78309;BME280;67566;42.022;21.356;2023-05-07T12:53:11;98570.25;;;28.09;26.86
78309;BME280;67566;42.022;21.356;2023-05-07T12:55:46;98566.09;;;28.01;27.29
78309;BME280;67566;42.022;21.356;2023-05-07T12:58:19;98556.09;;;27.94;26.05